Aviation Digital Data Service (ADDS)

Output produced by METARs form (1047 UTC 19 June 2019)
found at http://www.aviationweather.gov/metar/data/
 
MGGT 190500Z 1906/2006 36008KT 7000 SCT014 TX27/1920Z TN17/1912Z 
     TEMPO 1908/1912 5000 BR SCT008 
     BECMG 1915/1917 02010KT FEW018 
     TEMPO 1920/1924 18008KT SCT020TCU 
     BECMG 2001/2003 FEW016
       
MGPB 190500Z 1906/2006 00000KT 9999 FEW016 TX34/1920Z TN24/1912Z 
     BECMG 1914/1916 04008KT 
     BECMG 1920/1922 SCT020 
     BECMG 2001/2003 00000KT FEW016
       
MGSJ 190500Z 1906/2006 00000KT CAVOK TX35/1920Z TN24/1912Z 
     BECMG 1915/1917 18008KT 8000 NSC 
     TEMPO 1920/1924 SCT020TCU 
     BECMG 2002/2004 00000KT CAVOK